Time;durP1;ratioP1;P1;durP2;ratioP2;P2;SDS_P1;SDS_P2;PMS_P1;PMS_P2;Temp;Humidity;BMP_temperature;BMP_pressure;BME280_temperature;BME280_humidity;BME280_pressure;Samples;Min_cycle;Max_cycle;Signal;HPM_P1;HPM_P2
2022/04/21 00:01:01;;;;;;;17.88;13.68;;;12.10;74.20;;;;;;6122163;23;20752;-77
2022/04/21 00:03:28;;;;;;;17.42;14.25;;;12.20;74.40;;;;;;6122025;23;20442;-81
2022/04/21 00:05:55;;;;;;;14.07;12.43;;;12.00;75.30;;;;;;6124181;23;20452;-79
2022/04/21 00:08:22;;;;;;;15.32;13.68;;;12.00;74.80;;;;;;6121897;23;20383;-79
2022/04/21 00:10:49;;;;;;;15.77;13.20;;;12.10;74.80;;;;;;6122791;23;20687;-79
2022/04/21 00:13:17;;;;;;;14.50;12.70;;;12.10;74.70;;;;;;6108224;23;20384;-79
2022/04/21 00:15:47;;;;;;;14.70;13.15;;;12.10;74.90;;;;;;6120132;23;20431;-77
2022/04/21 00:18:14;;;;;;;14.27;12.70;;;12.10;75.80;;;;;;6121212;23;20376;-79
2022/04/21 00:20:41;;;;;;;13.93;12.43;;;12.10;75.50;;;;;;6120098;23;20379;-77
2022/04/21 00:26:00;;;;;;;13.70;12.40;;;12.10;75.40;;;;;;6122617;23;20438;-80
2022/04/21 00:28:28;;;;;;;15.98;13.27;;;12.10;75.40;;;;;;6122440;23;20380;-80
2022/04/21 00:30:56;;;;;;;16.83;13.70;;;12.00;76.90;;;;;;6122366;23;20399;-78
2022/04/21 00:33:23;;;;;;;14.27;12.88;;;12.00;76.10;;;;;;6121560;23;20379;-80
2022/04/21 00:35:50;;;;;;;14.73;12.38;;;12.00;75.80;;;;;;6125054;23;20379;-80
2022/04/21 00:38:17;;;;;;;13.80;12.30;;;12.00;75.80;;;;;;6125245;23;20444;-78
2022/04/21 00:40:44;;;;;;;15.73;13.75;;;12.10;76.00;;;;;;6124652;23;20450;-77
2022/04/21 00:43:11;;;;;;;15.32;12.70;;;12.00;76.20;;;;;;6123723;23;20930;-78
2022/04/21 00:45:38;;;;;;;16.00;12.18;;;12.00;76.00;;;;;;6122377;23;20430;-79
2022/04/21 00:48:06;;;;;;;17.80;14.80;;;12.00;75.50;;;;;;6123374;23;20379;-77
2022/04/21 00:50:37;;;;;;;16.40;13.73;;;11.90;78.30;;;;;;6123266;23;20764;-80
2022/04/21 00:53:06;;;;;;;15.60;12.07;;;11.90;78.00;;;;;;6123974;23;20403;-77
2022/04/21 00:55:37;;;;;;;12.82;11.52;;;11.90;78.00;;;;;;6122843;23;20387;-80
2022/04/21 00:58:05;;;;;;;13.65;11.88;;;11.90;77.40;;;;;;6122956;23;20894;-80
2022/04/21 01:00:32;;;;;;;17.65;14.05;;;11.90;77.00;;;;;;6123140;23;20860;-80
2022/04/21 01:03:00;;;;;;;17.02;14.35;;;12.00;77.60;;;;;;6146632;23;21289;-79
2022/04/21 01:05:34;;;;;;;14.95;13.32;;;11.90;78.10;;;;;;6121803;23;20872;-79
2022/04/21 01:08:02;;;;;;;16.13;14.43;;;11.90;78.50;;;;;;6121662;23;20364;-77
2022/04/21 01:10:31;;;;;;;13.95;12.07;;;11.90;79.00;;;;;;6122303;23;20392;-80
2022/04/21 01:12:59;;;;;;;17.27;14.13;;;11.80;78.90;;;;;;6121251;23;20426;-79
2022/04/21 01:15:27;;;;;;;17.27;13.80;;;11.80;79.60;;;;;;6123063;23;20391;-79
2022/04/21 01:17:54;;;;;;;13.63;11.88;;;11.80;79.70;;;;;;6122625;23;20431;-80
2022/04/21 01:20:22;;;;;;;15.68;13.32;;;11.80;79.10;;;;;;6124044;23;20376;-76
2022/04/21 01:22:50;;;;;;;15.25;12.15;;;11.80;79.00;;;;;;6120649;23;20383;-79
2022/04/21 01:25:17;;;;;;;12.48;11.27;;;11.80;79.40;;;;;;6115200;23;20377;-81
2022/04/21 01:27:46;;;;;;;14.43;12.77;;;11.80;78.70;;;;;;6120720;23;20710;-80
2022/04/21 01:30:13;;;;;;;13.43;12.02;;;11.90;78.30;;;;;;6125443;23;20820;-80
2022/04/21 01:32:42;;;;;;;17.52;14.55;;;11.90;78.30;;;;;;6121043;23;20463;-77
2022/04/21 01:35:16;;;;;;;16.58;13.98;;;11.90;79.60;;;;;;6123612;23;20372;-80
2022/04/21 01:43:14;;;;;;;16.35;13.50;;;11.50;80.60;;;;;;6121715;23;20364;-77
2022/04/21 01:45:43;;;;;;;15.13;13.55;;;11.60;80.20;;;;;;6124539;23;20379;-80
2022/04/21 01:48:09;;;;;;;16.17;13.43;;;11.60;79.40;;;;;;6122759;23;20379;-77
2022/04/21 01:50:37;;;;;;;14.40;12.90;;;11.70;78.80;;;;;;6122630;23;20391;-77
2022/04/21 01:53:04;;;;;;;13.80;12.27;;;11.70;77.90;;;;;;6120569;23;20859;-80
2022/04/21 01:55:31;;;;;;;16.40;13.93;;;11.80;77.20;;;;;;6121583;23;20435;-77
2022/04/21 01:57:58;;;;;;;16.00;14.10;;;11.80;78.10;;;;;;6120929;23;20403;-79
2022/04/21 02:00:26;;;;;;;13.17;11.77;;;11.80;77.80;;;;;;6108561;23;20713;-77
2022/04/21 02:02:53;;;;;;;14.37;12.87;;;11.80;77.40;;;;;;6121330;23;20376;-77
2022/04/21 02:05:20;;;;;;;13.18;11.82;;;11.90;77.30;;;;;;6122180;23;20430;-79
2022/04/21 02:07:47;;;;;;;14.25;12.05;;;11.90;77.10;;;;;;6123043;23;20749;-79
2022/04/21 02:10:16;;;;;;;16.08;13.77;;;11.90;77.00;;;;;;6121529;23;20818;-80
2022/04/21 02:12:45;;;;;;;14.88;13.25;;;11.90;77.60;;;;;;6112183;23;20381;-77
2022/04/21 02:15:12;;;;;;;18.25;13.55;;;11.90;77.40;;;;;;6119381;23;20376;-80
2022/04/21 02:17:39;;;;;;;16.90;15.10;;;11.90;77.70;;;;;;6122602;23;20848;-80
2022/04/21 02:20:09;;;;;;;15.57;13.87;;;11.90;77.60;;;;;;6122092;23;20385;-79
2022/04/21 02:22:36;;;;;;;15.43;13.77;;;11.90;77.70;;;;;;6097403;23;20698;-80
2022/04/21 02:25:08;;;;;;;15.18;13.55;;;11.80;78.90;;;;;;6121253;23;20372;-80
2022/04/21 02:27:37;;;;;;;17.50;15.18;;;11.80;78.20;;;;;;6122561;23;20705;-80
2022/04/21 02:30:06;;;;;;;16.27;14.60;;;11.80;78.00;;;;;;6120836;23;20375;-80
2022/04/21 02:32:33;;;;;;;17.30;13.93;;;11.80;78.80;;;;;;6112474;23;20438;-80
2022/04/21 02:35:01;;;;;;;18.45;14.32;;;11.80;78.30;;;;;;6124325;23;20431;-78
2022/04/21 02:37:28;;;;;;;16.73;14.30;;;11.80;77.60;;;;;;6122777;23;20443;-80
2022/04/21 02:39:55;;;;;;;15.18;13.57;;;11.80;78.30;;;;;;6123421;23;20444;-80
2022/04/21 02:42:22;;;;;;;16.87;14.57;;;11.80;77.40;;;;;;6119483;23;20426;-79
2022/04/21 02:44:49;;;;;;;15.23;13.63;;;11.80;77.90;;;;;;6122931;23;20872;-79
2022/04/21 02:47:17;;;;;;;17.13;14.98;;;11.80;77.40;;;;;;6119585;23;20380;-79
2022/04/21 02:49:46;;;;;;;21.13;16.10;;;11.80;77.40;;;;;;6111495;23;20394;-80
2022/04/21 02:52:14;;;;;;;19.63;15.55;;;11.80;76.20;;;;;;6122536;23;20388;-80
2022/04/21 02:57:30;;;;;;;18.13;15.77;;;11.70;76.20;;;;;;6121368;23;20384;-79
2022/04/21 02:59:59;;;;;;;17.00;15.30;;;11.70;75.80;;;;;;6122058;23;20457;-79
2022/04/21 03:02:26;;;;;;;18.50;16.60;;;11.70;75.80;;;;;;6121674;23;20709;-79
2022/04/21 03:04:54;;;;;;;18.17;16.27;;;11.70;76.70;;;;;;6121818;23;20384;-77
2022/04/21 03:07:22;;;;;;;20.23;15.98;;;11.60;76.40;;;;;;6120597;23;20538;-80
2022/04/21 03:09:53;;;;;;;18.67;16.65;;;11.60;76.10;;;;;;6121520;23;20442;-80
2022/04/21 03:12:24;;;;;;;18.67;16.33;;;11.60;77.10;;;;;;6122459;23;20398;-79
2022/04/21 03:14:51;;;;;;;18.98;15.48;;;11.60;76.80;;;;;;6124586;23;20879;-79
2022/04/21 03:17:17;;;;;;;20.20;16.52;;;11.60;76.30;;;;;;6117964;23;20856;-79
2022/04/21 03:19:45;;;;;;;21.83;16.27;;;11.70;75.50;;;;;;6116141;23;20391;-77
2022/04/21 03:25:04;;;;;;;21.55;16.80;;;11.70;76.70;;;;;;6124338;23;20381;-80
2022/04/21 03:27:31;;;;;;;18.35;16.38;;;11.60;76.40;;;;;;6110281;23;20399;-80
2022/04/21 03:30:00;;;;;;;20.42;17.02;;;11.50;77.10;;;;;;6123732;23;20765;-79
2022/04/21 03:32:27;;;;;;;19.88;17.17;;;11.50;76.50;;;;;;6097653;23;20395;-80
2022/04/21 03:34:54;;;;;;;19.92;17.08;;;11.50;75.80;;;;;;6126179;23;20398;-77
2022/04/21 03:37:21;;;;;;;22.13;16.93;;;11.60;75.50;;;;;;6121588;23;20380;-77
2022/04/21 03:39:48;;;;;;;19.45;16.38;;;11.50;76.00;;;;;;6122842;23;20379;-80
2022/04/21 03:42:31;;;;;;;19.52;16.67;;;11.60;74.50;;;;;;6123300;23;20387;-81
2022/04/21 03:44:59;;;;;;;21.67;17.07;;;11.60;75.00;;;;;;6123580;23;20502;-77
2022/04/21 03:47:26;;;;;;;20.63;18.08;;;11.60;75.10;;;;;;6122330;23;20399;-77
2022/04/21 03:49:53;;;;;;;19.50;15.73;;;11.60;75.20;;;;;;6123091;23;20454;-81
2022/04/21 03:52:22;;;;;;;19.73;17.40;;;11.60;75.20;;;;;;6122244;23;20857;-79
2022/04/21 03:54:49;;;;;;;18.90;16.80;;;11.50;75.00;;;;;;6120966;23;20435;-80
2022/04/21 03:57:16;;;;;;;19.43;17.03;;;11.50;75.30;;;;;;6120667;23;20383;-80
2022/04/21 03:59:43;;;;;;;20.08;16.80;;;11.50;75.10;;;;;;6122032;23;20419;-80
2022/04/21 04:02:10;;;;;;;19.38;15.90;;;11.50;75.30;;;;;;6120684;23;20442;-80
2022/04/21 04:04:38;;;;;;;19.02;15.63;;;11.50;75.20;;;;;;6121628;23;20382;-80
2022/04/21 04:12:38;;;;;;;17.58;14.20;;;11.70;73.90;;;;;;6123388;23;20449;-80
2022/04/21 04:15:06;;;;;;;17.23;15.32;;;11.70;73.70;;;;;;6122192;23;20952;-80
2022/04/21 04:17:33;;;;;;;17.20;14.60;;;11.70;73.90;;;;;;6122917;23;20379;-78
2022/04/21 04:20:00;;;;;;;17.58;14.63;;;11.70;73.80;;;;;;6122799;23;20407;-81
2022/04/21 04:22:27;;;;;;;16.75;14.95;;;11.60;74.50;;;;;;6123320;23;20380;-78
2022/04/21 04:24:56;;;;;;;21.85;17.73;;;11.50;75.90;;;;;;6123311;23;20379;-80
2022/04/21 04:27:24;;;;;;;23.10;18.57;;;11.40;76.70;;;;;;6123973;23;20429;-78
2022/04/21 04:29:51;;;;;;;18.97;15.80;;;11.40;77.20;;;;;;6111903;23;20371;-81
2022/04/21 04:32:18;;;;;;;21.92;19.08;;;11.40;77.70;;;;;;6122197;23;20383;-79
2022/04/21 04:34:45;;;;;;;23.23;19.35;;;11.30;77.90;;;;;;6123294;23;20403;-78
2022/04/21 04:37:12;;;;;;;22.83;18.90;;;11.30;77.80;;;;;;6114607;23;20385;-81
2022/04/21 04:39:38;;;;;;;18.52;15.88;;;11.20;78.10;;;;;;6120369;23;20382;-78
2022/04/21 04:42:17;;;;;;;19.00;15.82;;;11.20;77.70;;;;;;6121957;23;20434;-78
2022/04/21 04:44:45;;;;;;;18.10;15.27;;;11.20;77.40;;;;;;6122723;23;20414;-79
2022/04/21 04:47:13;;;;;;;19.77;15.35;;;11.20;78.20;;;;;;6122695;23;20443;-79
2022/04/21 04:49:40;;;;;;;17.08;15.23;;;11.20;78.10;;;;;;6123419;23;20379;-81
2022/04/21 04:52:07;;;;;;;16.98;15.20;;;11.30;77.60;;;;;;6122867;23;20376;-80
2022/04/21 04:54:34;;;;;;;17.02;15.32;;;11.30;77.90;;;;;;6121935;23;20383;-80
2022/04/21 04:57:02;;;;;;;17.33;15.18;;;11.30;78.00;;;;;;6123672;23;20376;-79
2022/04/21 04:59:29;;;;;;;20.35;16.63;;;11.40;77.80;;;;;;6121792;23;20388;-80
2022/04/21 05:01:57;;;;;;;19.47;15.97;;;11.40;77.70;;;;;;6122619;23;20447;-78
2022/04/21 05:04:25;;;;;;;19.40;16.98;;;11.40;78.60;;;;;;6090438;23;20418;-78
2022/04/21 05:06:54;;;;;;;18.98;16.52;;;11.30;78.90;;;;;;6120974;23;20761;-80
2022/04/21 05:09:24;;;;;;;18.67;16.77;;;11.20;79.60;;;;;;6121167;23;20383;-78
2022/04/21 05:11:54;;;;;;;17.33;15.53;;;11.20;80.40;;;;;;6122695;23;20425;-77
2022/04/21 05:14:22;;;;;;;18.02;16.13;;;11.20;80.20;;;;;;6124330;23;20431;-78
2022/04/21 05:16:49;;;;;;;20.42;16.90;;;11.20;79.90;;;;;;6122397;23;20383;-79
2022/04/21 05:19:19;;;;;;;19.00;16.95;;;11.30;79.50;;;;;;6122156;23;20451;-80
2022/04/21 05:21:50;;;;;;;20.65;17.45;;;11.30;80.00;;;;;;6122306;23;20391;-80
2022/04/21 05:24:17;;;;;;;18.48;15.85;;;11.10;81.00;;;;;;6122926;23;20434;-81
2022/04/21 05:26:45;;;;;;;19.67;17.57;;;11.20;80.50;;;;;;6116872;23;21059;-80
2022/04/21 05:32:05;;;;;;;20.57;17.30;;;11.00;81.70;;;;;;6120644;23;20948;-79
2022/04/21 05:34:33;;;;;;;20.45;16.48;;;10.90;82.90;;;;;;6121452;23;20764;-79
2022/04/21 05:37:02;;;;;;;14.48;12.98;;;10.90;83.30;;;;;;6108376;23;20418;-78
2022/04/21 05:39:29;;;;;;;15.15;13.32;;;10.90;82.70;;;;;;6114723;23;20451;-79
2022/04/21 05:41:58;;;;;;;15.80;12.90;;;10.90;82.10;;;;;;6122743;23;20871;-79
2022/04/21 05:44:27;;;;;;;15.30;13.17;;;10.90;81.70;;;;;;6122541;23;20402;-79
2022/04/21 05:46:54;;;;;;;14.88;13.27;;;11.00;81.10;;;;;;6121849;23;20450;-79
2022/04/21 05:49:21;;;;;;;10.10;9.10;;;11.00;80.40;;;;;;6118435;23;20400;-80
2022/04/21 05:51:49;;;;;;;9.43;6.75;;;11.00;78.10;;;;;;6121501;23;20388;-79
2022/04/21 05:54:26;;;;;;;10.10;7.25;;;11.00;74.90;;;;;;6122840;23;20384;-80
2022/04/21 05:56:53;;;;;;;7.18;6.47;;;11.00;73.70;;;;;;6115935;23;20714;-80
2022/04/21 05:59:20;;;;;;;10.05;8.10;;;10.90;73.70;;;;;;6123617;23;20964;-80
2022/04/21 06:01:46;;;;;;;9.13;8.23;;;10.90;74.30;;;;;;6122520;23;20381;-79
2022/04/21 06:04:13;;;;;;;9.20;8.13;;;10.90;75.00;;;;;;6138482;23;20377;-77
2022/04/21 06:06:40;;;;;;;8.40;7.45;;;10.90;74.20;;;;;;6121397;23;20380;-77
2022/04/21 06:09:07;;;;;;;7.00;6.25;;;10.90;74.00;;;;;;6116179;23;20388;-79
2022/04/21 06:11:35;;;;;;;8.07;5.80;;;10.90;72.80;;;;;;6122134;23;20379;-79
2022/04/21 06:14:02;;;;;;;13.57;8.38;;;10.80;70.90;;;;;;6120572;23;20443;-80
2022/04/21 06:16:29;;;;;;;9.27;5.90;;;10.90;71.00;;;;;;6122666;23;20434;-77
2022/04/21 06:18:56;;;;;;;6.55;3.90;;;10.90;70.30;;;;;;6120676;23;20422;-76
2022/04/21 06:21:29;;;;;;;5.95;4.47;;;10.90;66.90;;;;;;6122696;23;20399;-80
2022/04/21 06:23:56;;;;;;;8.50;7.60;;;10.90;68.40;;;;;;6108047;23;20745;-78
2022/04/21 06:26:25;;;;;;;14.00;10.75;;;11.00;71.30;;;;;;6115743;23;20377;-78
2022/04/21 06:28:57;;;;;;;14.43;12.23;;;11.00;74.40;;;;;;6114266;23;20380;-76
2022/04/21 06:31:25;;;;;;;13.05;11.05;;;11.00;74.40;;;;;;6120919;23;20455;-77
2022/04/21 06:33:52;;;;;;;14.93;12.10;;;11.10;76.70;;;;;;6121018;23;20419;-78
2022/04/21 06:36:19;;;;;;;13.82;11.77;;;11.10;76.80;;;;;;6121933;23;20427;-77
2022/04/21 06:38:45;;;;;;;13.50;12.07;;;11.00;77.10;;;;;;6122795;23;20388;-78
2022/04/21 06:41:12;;;;;;;12.98;11.68;;;11.10;76.30;;;;;;6119700;23;22528;-78
2022/04/21 06:49:11;;;;;;;11.82;9.88;;;11.20;75.00;;;;;;6110520;23;20379;-78
2022/04/21 06:51:39;;;;;;;11.87;9.27;;;11.20;74.90;;;;;;6098475;23;20413;-78
2022/04/21 06:54:09;;;;;;;11.38;10.27;;;11.20;74.30;;;;;;6122117;23;20379;-79
2022/04/21 06:56:37;;;;;;;11.88;8.80;;;11.20;73.80;;;;;;6121178;23;20868;-76
2022/04/21 06:59:05;;;;;;;11.35;10.02;;;11.20;73.80;;;;;;6111963;23;20376;-77
2022/04/21 07:01:32;;;;;;;11.65;10.45;;;11.30;73.50;;;;;;6108077;23;20436;-78
2022/04/21 07:04:00;;;;;;;12.40;10.65;;;11.30;74.50;;;;;;6121795;23;20368;-78
2022/04/21 07:06:27;;;;;;;12.63;11.38;;;11.20;75.30;;;;;;6123188;23;20387;-78
2022/04/21 07:08:53;;;;;;;12.63;10.52;;;11.20;77.00;;;;;;6122796;23;20813;-76
2022/04/21 07:11:20;;;;;;;12.38;11.00;;;11.10;77.50;;;;;;6110813;23;20374;-77
2022/04/21 07:13:47;;;;;;;12.23;10.57;;;11.20;77.20;;;;;;6121016;23;20384;-78
2022/04/21 07:16:14;;;;;;;12.90;11.40;;;11.20;78.10;;;;;;6121929;23;20376;-76
2022/04/21 07:18:42;;;;;;;17.75;14.05;;;11.10;80.00;;;;;;6117332;23;20379;-77
2022/04/21 07:21:09;;;;;;;16.10;13.82;;;11.10;79.20;;;;;;6110959;23;20386;-78
2022/04/21 07:23:37;;;;;;;10.73;8.75;;;11.10;78.90;;;;;;6120355;23;20391;-78
2022/04/21 07:26:04;;;;;;;12.88;9.20;;;11.00;75.30;;;;;;6120456;23;20717;-78
2022/04/21 07:28:32;;;;;;;10.68;9.57;;;11.00;74.70;;;;;;6121732;23;20382;-77
2022/04/21 07:30:59;;;;;;;12.25;10.38;;;11.00;74.90;;;;;;6120881;23;20364;-78
2022/04/21 07:33:26;;;;;;;14.65;11.80;;;11.10;76.10;;;;;;6097371;23;20391;-76
2022/04/21 07:35:54;;;;;;;11.07;9.48;;;11.10;77.00;;;;;;6121155;23;20380;-77
2022/04/21 07:38:21;;;;;;;11.15;9.98;;;11.10;76.60;;;;;;6120820;23;20379;-78
2022/04/21 07:40:53;;;;;;;11.10;9.88;;;11.20;76.60;;;;;;6111539;23;20389;-78
2022/04/21 07:43:21;;;;;;;10.15;9.10;;;11.20;77.10;;;;;;6112609;23;20382;-78
2022/04/21 07:45:52;;;;;;;9.05;7.88;;;11.30;76.00;;;;;;6119759;23;20379;-78
2022/04/21 07:48:19;;;;;;;7.75;6.88;;;11.40;74.80;;;;;;6121919;23;20434;-78
2022/04/21 07:50:46;;;;;;;9.75;7.10;;;11.40;73.60;;;;;;6118394;23;20415;-78
2022/04/21 07:53:21;;;;;;;9.63;7.00;;;11.40;72.60;;;;;;6121914;23;20386;-78
2022/04/21 07:55:50;;;;;;;10.07;8.75;;;11.40;72.90;;;;;;6123552;23;20387;-78
2022/04/21 07:58:18;;;;;;;11.10;8.52;;;11.40;75.10;;;;;;6084585;23;21526;-78
2022/04/21 08:00:45;;;;;;;7.90;7.10;;;11.50;74.90;;;;;;6120633;23;20478;-76
2022/04/21 08:03:16;;;;;;;8.93;6.40;;;11.60;73.70;;;;;;6112280;23;20793;-78
2022/04/21 08:05:45;;;;;;;9.18;7.32;;;11.60;72.60;;;;;;6121492;23;20383;-75
2022/04/21 08:08:12;;;;;;;7.78;6.18;;;11.70;73.30;;;;;;6108092;23;20381;-78
2022/04/21 08:10:38;;;;;;;9.00;6.35;;;11.80;72.40;;;;;;6121958;23;20406;-78
2022/04/21 08:13:05;;;;;;;8.75;5.22;;;11.80;73.20;;;;;;6119634;23;20391;-79
2022/04/21 08:15:35;;;;;;;5.60;4.53;;;11.80;71.40;;;;;;6122529;23;20376;-78
2022/04/21 08:18:04;;;;;;;5.60;4.60;;;11.90;70.00;;;;;;6120307;23;20446;-79
2022/04/21 08:20:33;;;;;;;7.00;5.10;;;12.00;69.00;;;;;;6109675;23;20375;-76
2022/04/21 08:23:04;;;;;;;6.03;4.30;;;12.00;69.20;;;;;;6096350;23;20723;-77
2022/04/21 08:34:40;;;;;;;9.68;4.75;;;12.30;67.00;;;;;;6090940;23;20437;-77
2022/04/21 08:37:07;;;;;;;7.18;4.82;;;12.30;67.80;;;;;;6127100;23;20840;-78
2022/04/21 08:39:34;;;;;;;10.03;4.83;;;12.40;69.10;;;;;;6119650;23;20445;-77
2022/04/21 08:42:10;;;;;;;6.78;4.78;;;12.40;67.90;;;;;;6122253;23;20376;-76
2022/04/21 08:44:41;;;;;;;5.07;4.30;;;12.40;67.60;;;;;;6118786;23;20397;-75
2022/04/21 08:47:10;;;;;;;6.20;3.80;;;12.50;67.20;;;;;;6108180;23;20372;-78
2022/04/21 08:49:39;;;;;;;6.10;4.30;;;12.50;66.40;;;;;;6122816;23;20761;-78
2022/04/21 08:52:07;;;;;;;7.05;4.45;;;12.60;64.90;;;;;;6119689;23;20454;-78
2022/04/21 08:54:35;;;;;;;4.28;3.65;;;12.60;64.70;;;;;;6122118;23;20371;-76
2022/04/21 08:57:11;;;;;;;5.40;3.35;;;12.70;64.80;;;;;;6121851;23;20422;-77
2022/04/21 08:59:38;;;;;;;4.75;2.88;;;12.60;59.90;;;;;;6122501;23;20845;-78
2022/04/21 09:02:05;;;;;;;5.28;3.00;;;12.60;60.10;;;;;;6122371;23;20376;-78
2022/04/21 09:04:32;;;;;;;4.35;3.40;;;12.70;59.40;;;;;;6119539;23;20402;-78
2022/04/21 09:07:20;;;;;;;5.90;3.00;;;12.60;59.60;;;;;;6109130;23;20872;-78
2022/04/21 09:10:11;;;;;;;5.93;3.42;;;12.60;59.30;;;;;;6114093;23;20456;-79
2022/04/21 09:12:44;;;;;;;3.85;2.97;;;12.50;59.20;;;;;;6122580;23;20380;-78
2022/04/21 09:15:16;;;;;;;6.03;3.17;;;12.60;60.60;;;;;;6122711;23;20431;-75
2022/04/21 09:17:59;;;;;;;5.38;3.33;;;12.70;60.50;;;;;;6113490;23;20390;-78
2022/04/21 09:20:35;;;;;;;4.90;3.70;;;12.70;60.90;;;;;;6109396;23;20376;-77
2022/04/21 09:23:12;;;;;;;5.72;3.20;;;12.70;60.40;;;;;;6119770;23;20384;-78
2022/04/21 09:25:48;;;;;;;5.20;3.08;;;12.80;59.40;;;;;;6112233;23;20377;-78
2022/04/21 09:28:25;;;;;;;5.65;3.58;;;12.90;59.40;;;;;;6121127;23;20387;-78
2022/04/21 09:30:56;;;;;;;5.80;2.90;;;13.00;59.40;;;;;;6122161;23;20407;-78
2022/04/21 09:33:27;;;;;;;4.18;2.63;;;13.10;56.70;;;;;;6095901;23;20394;-76
2022/04/21 09:36:03;;;;;;;4.40;2.22;;;13.20;57.90;;;;;;6121754;23;20390;-78
2022/04/21 09:38:31;;;;;;;3.75;2.40;;;13.30;55.40;;;;;;6118663;23;20380;-78
2022/04/21 09:41:12;;;;;;;6.65;2.70;;;13.30;55.60;;;;;;6098950;23;20380;-78
2022/04/21 09:43:42;;;;;;;5.38;2.47;;;13.30;55.10;;;;;;6134728;23;20905;-78
2022/04/21 09:46:12;;;;;;;3.60;2.20;;;13.30;54.00;;;;;;6122966;23;20442;-76
2022/04/21 09:48:40;;;;;;;4.27;2.00;;;13.30;54.60;;;;;;6121578;23;20371;-78
2022/04/21 09:51:12;;;;;;;4.05;2.13;;;13.40;56.30;;;;;;6122395;23;20419;-78
2022/04/21 09:53:52;;;;;;;3.45;1.83;;;13.60;54.80;;;;;;6120956;23;20438;-78
2022/04/21 09:56:34;;;;;;;6.70;2.80;;;13.50;53.60;;;;;;6121124;23;20434;-78
2022/04/21 09:59:03;;;;;;;6.25;3.03;;;13.60;55.10;;;;;;6123775;23;20856;-78
2022/04/21 10:01:30;;;;;;;3.58;2.25;;;13.70;53.80;;;;;;6121962;23;20387;-78
2022/04/21 10:03:58;;;;;;;8.40;3.40;;;13.70;53.40;;;;;;6146071;23;20380;-76
2022/04/21 10:06:26;;;;;;;5.30;2.37;;;13.50;52.50;;;;;;6121194;23;20417;-76
2022/04/21 10:08:53;;;;;;;5.60;2.13;;;13.70;53.40;;;;;;6121200;23;20388;-78
2022/04/21 10:11:23;;;;;;;7.43;3.35;;;13.60;53.60;;;;;;6122245;23;20431;-78
2022/04/21 10:13:57;;;;;;;5.20;2.50;;;13.70;55.60;;;;;;6121331;23;20387;-76
2022/04/21 10:16:28;;;;;;;6.78;2.20;;;13.80;54.30;;;;;;6120699;23;20451;-76
2022/04/21 10:18:57;;;;;;;5.68;2.45;;;13.90;52.80;;;;;;6122098;23;20394;-78
2022/04/21 10:21:42;;;;;;;5.97;2.10;;;13.70;52.90;;;;;;6121918;23;20380;-79
2022/04/21 10:24:10;;;;;;;2.92;1.50;;;13.40;52.60;;;;;;6111107;23;20437;-78
2022/04/21 10:26:39;;;;;;;2.92;1.65;;;13.40;53.30;;;;;;6120282;23;20394;-77
2022/04/21 10:29:12;;;;;;;3.70;1.80;;;13.40;51.30;;;;;;6109871;23;20376;-78
2022/04/21 10:31:55;;;;;;;4.15;1.92;;;13.20;50.80;;;;;;6122160;23;20384;-78
2022/04/21 10:34:34;;;;;;;3.30;1.70;;;13.10;50.80;;;;;;6124130;23;20390;-78
2022/04/21 10:37:12;;;;;;;5.75;2.30;;;13.20;51.00;;;;;;6122942;23;20376;-78
2022/04/21 10:39:40;;;;;;;3.58;2.20;;;13.20;51.60;;;;;;6121158;23;20406;-79
2022/04/21 10:42:14;;;;;;;3.10;1.75;;;13.10;52.30;;;;;;6120981;23;20390;-78
2022/04/21 10:44:49;;;;;;;2.75;1.65;;;13.20;52.50;;;;;;6119847;23;20375;-78
2022/04/21 10:47:30;;;;;;;3.95;1.70;;;13.20;51.00;;;;;;6126081;23;20387;-79
2022/04/21 10:49:59;;;;;;;3.80;1.40;;;13.20;51.30;;;;;;6121337;23;20696;-76
2022/04/21 10:57:50;;;;;;;3.03;1.30;;;13.20;51.50;;;;;;6121715;23;20713;-78
2022/04/21 11:00:29;;;;;;;1.93;0.90;;;13.20;51.40;;;;;;6114515;23;20880;-76
2022/04/21 11:03:04;;;;;;;2.92;1.17;;;13.20;51.60;;;;;;6120900;23;20438;-79
2022/04/21 11:05:33;;;;;;;3.45;1.50;;;13.20;51.80;;;;;;6123550;23;20932;-79
2022/04/21 11:08:10;;;;;;;2.47;1.40;;;13.20;52.00;;;;;;6121242;23;20430;-79
2022/04/21 11:10:36;;;;;;;2.43;1.30;;;13.20;51.70;;;;;;6120265;23;20380;-78
2022/04/21 11:13:05;;;;;;;2.60;1.27;;;13.20;51.40;;;;;;6121803;23;20383;-76
2022/04/21 11:15:45;;;;;;;3.87;1.80;;;13.20;51.70;;;;;;6121099;23;20388;-78
2022/04/21 11:18:29;;;;;;;4.75;1.67;;;13.20;52.70;;;;;;6119811;23;20375;-78
2022/04/21 11:21:26;;;;;;;4.75;2.00;;;13.10;53.60;;;;;;6121363;23;20399;-78
2022/04/21 11:23:53;;;;;;;4.25;2.15;;;13.10;54.40;;;;;;6097604;23;20380;-78
2022/04/21 11:26:30;;;;;;;3.92;2.13;;;13.10;54.90;;;;;;6115217;23;20441;-79
2022/04/21 11:29:02;;;;;;;4.88;2.38;;;13.20;55.50;;;;;;6120410;23;20887;-78
2022/04/21 11:31:31;;;;;;;5.07;2.67;;;13.20;55.30;;;;;;6108818;23;20384;-79
2022/04/21 11:34:03;;;;;;;4.28;2.22;;;13.30;55.10;;;;;;6119679;23;20466;-78
2022/04/21 11:36:36;;;;;;;4.70;2.50;;;13.40;55.00;;;;;;6121688;23;20470;-78
2022/04/21 11:39:07;;;;;;;4.80;2.70;;;13.40;54.30;;;;;;6122767;23;20383;-78
2022/04/21 11:41:40;;;;;;;6.20;3.50;;;13.40;55.60;;;;;;6098844;23;20386;-79
2022/04/21 11:44:08;;;;;;;5.15;3.53;;;13.30;55.50;;;;;;6098637;23;20884;-77
2022/04/21 11:46:39;;;;;;;5.68;3.53;;;13.40;56.50;;;;;;6109777;23;20385;-79
2022/04/21 11:49:08;;;;;;;5.00;3.33;;;13.30;55.40;;;;;;6121535;23;20379;-76
2022/04/21 11:51:36;;;;;;;4.65;2.75;;;13.50;55.60;;;;;;6121295;23;20934;-79
2022/04/21 11:54:08;;;;;;;3.92;2.70;;;13.60;54.30;;;;;;6119855;23;20395;-78
2022/04/21 11:56:36;;;;;;;3.80;2.20;;;13.70;54.80;;;;;;6119769;23;20466;-77
2022/04/21 11:59:09;;;;;;;4.25;2.15;;;13.80;51.60;;;;;;6120290;23;20398;-78
2022/04/21 12:07:17;;;;;;;4.00;2.10;;;14.00;51.10;;;;;;6136719;23;20383;-78
2022/04/21 12:09:50;;;;;;;3.80;1.98;;;14.10;50.60;;;;;;6119948;23;20387;-79
2022/04/21 12:12:21;;;;;;;3.17;1.80;;;14.10;49.50;;;;;;6121391;23;20422;-79
2022/04/21 12:14:48;;;;;;;2.40;1.50;;;14.20;47.10;;;;;;6122516;23;20438;-77
2022/04/21 12:17:16;;;;;;;2.28;1.50;;;14.20;46.70;;;;;;6120525;23;20391;-78
2022/04/21 12:19:45;;;;;;;3.63;1.60;;;14.20;46.90;;;;;;6121291;23;20458;-78
2022/04/21 12:22:16;;;;;;;2.08;1.40;;;14.20;47.50;;;;;;6120217;23;20402;-78
2022/04/21 12:24:44;;;;;;;3.85;1.70;;;14.30;46.30;;;;;;6121929;23;20405;-78
2022/04/21 12:27:22;;;;;;;2.35;1.60;;;14.50;45.60;;;;;;6122631;23;20387;-79
2022/04/21 12:30:00;;;;;;;3.73;1.83;;;14.60;45.80;;;;;;6124910;23;20908;-77
2022/04/21 12:32:30;;;;;;;2.78;1.95;;;14.80;47.70;;;;;;6122981;23;20427;-78
2022/04/21 12:34:59;;;;;;;4.13;2.00;;;14.90;47.90;;;;;;6123875;23;20835;-79
2022/04/21 12:37:31;;;;;;;5.35;3.00;;;15.20;47.50;;;;;;6121995;23;20379;-78
2022/04/21 12:40:10;;;;;;;4.10;2.27;;;15.30;46.80;;;;;;6122636;23;20386;-79
2022/04/21 12:42:47;;;;;;;4.68;1.83;;;15.10;47.10;;;;;;6122569;23;20390;-79
2022/04/21 12:45:15;;;;;;;2.20;1.80;;;15.20;46.90;;;;;;6108852;23;20883;-78
2022/04/21 12:47:46;;;;;;;4.25;2.10;;;15.10;46.60;;;;;;6120739;23;20407;-79
2022/04/21 12:50:34;;;;;;;7.80;2.10;;;15.00;47.50;;;;;;6122771;23;20383;-78
2022/04/21 12:53:01;;;;;;;3.80;2.00;;;15.20;47.10;;;;;;6121545;23;20375;-80
2022/04/21 12:55:31;;;;;;;4.53;1.97;;;15.30;46.90;;;;;;6122716;23;20391;-80
2022/04/21 12:58:02;;;;;;;4.10;2.00;;;15.10;46.60;;;;;;6128255;23;20352;-79
2022/04/21 13:00:30;;;;;;;4.00;2.30;;;15.00;46.90;;;;;;6124274;23;20380;-78
2022/04/21 13:02:57;;;;;;;2.53;1.80;;;15.00;46.00;;;;;;6122071;23;20443;-79
2022/04/21 13:05:24;;;;;;;2.53;1.98;;;15.20;46.90;;;;;;6124049;23;20379;-78
2022/04/21 13:07:51;;;;;;;4.63;2.05;;;15.20;46.40;;;;;;6122868;23;20438;-79
2022/04/21 13:10:21;;;;;;;3.22;1.80;;;15.00;46.10;;;;;;6121243;23;20438;-79
2022/04/21 13:12:49;;;;;;;3.42;1.85;;;14.90;46.50;;;;;;6121431;23;20458;-78
2022/04/21 13:15:16;;;;;;;3.30;2.10;;;14.90;46.90;;;;;;6122661;23;20430;-78
2022/04/21 13:17:45;;;;;;;2.30;1.92;;;15.00;45.70;;;;;;6122363;23;20375;-77
2022/04/21 13:21:52;;;;;;;4.07;1.73;;;14.80;46.20;;;;;;6115659;23;20382;-79
2022/04/21 13:23:05;;;;;;;4.38;2.20;;;14.90;48.10;;;;;;6122296;23;20637;-79
2022/04/21 13:25:40;;;;;;;5.00;2.17;;;15.00;47.20;;;;;;6122317;23;20415;-79
2022/04/21 13:28:07;;;;;;;3.97;2.40;;;15.00;47.00;;;;;;6123038;23;20391;-76
2022/04/21 13:30:34;;;;;;;4.18;2.65;;;15.10;46.90;;;;;;6123701;23;20411;-78
2022/04/21 13:35:53;;;;;;;4.18;2.35;;;15.10;45.90;;;;;;6124705;23;20384;-77
2022/04/21 13:38:21;;;;;;;5.90;2.58;;;15.20;47.20;;;;;;6123874;23;20383;-79